sensor_id;sensor_type;location;lat;lon;timestamp;pressure;altitude;pressure_sealevel;temperature;humidity
65329;BME280;51941;52.210;5.158;2024-02-21T00:01:22;102115.13;;;8.80;78.33
65329;BME280;51941;52.210;5.158;2024-02-21T00:03:48;102110.19;;;8.82;78.58
65329;BME280;51941;52.210;5.158;2024-02-21T00:06:15;102114.44;;;8.83;78.48
65329;BME280;51941;52.210;5.158;2024-02-21T00:08:42;102110.34;;;8.86;78.59
65329;BME280;51941;52.210;5.158;2024-02-21T00:11:10;102110.81;;;8.88;78.50
65329;BME280;51941;52.210;5.158;2024-02-21T00:13:37;102110.66;;;8.84;78.26
65329;BME280;51941;52.210;5.158;2024-02-21T00:16:04;102114.59;;;8.87;78.17
65329;BME280;51941;52.210;5.158;2024-02-21T00:18:31;102101.75;;;8.93;78.34
65329;BME280;51941;52.210;5.158;2024-02-21T00:20:57;102097.03;;;8.89;78.50
65329;BME280;51941;52.210;5.158;2024-02-21T00:23:24;102096.69;;;8.91;78.46
65329;BME280;51941;52.210;5.158;2024-02-21T00:25:51;102096.69;;;8.91;78.61
65329;BME280;51941;52.210;5.158;2024-02-21T00:28:19;102103.66;;;8.92;78.53
65329;BME280;51941;52.210;5.158;2024-02-21T00:30:46;102095.38;;;8.97;78.57
65329;BME280;51941;52.210;5.158;2024-02-21T00:33:16;102108.50;;;8.99;78.53
65329;BME280;51941;52.210;5.158;2024-02-21T00:35:42;102111.31;;;9.02;78.45
65329;BME280;51941;52.210;5.158;2024-02-21T00:38:09;102107.88;;;9.02;78.59
65329;BME280;51941;52.210;5.158;2024-02-21T00:40:36;102111.16;;;9.07;78.51
65329;BME280;51941;52.210;5.158;2024-02-21T00:43:03;102108.31;;;9.04;78.57
65329;BME280;51941;52.210;5.158;2024-02-21T00:45:31;102099.00;;;9.01;78.38
65329;BME280;51941;52.210;5.158;2024-02-21T00:47:58;102088.25;;;9.01;78.55
65329;BME280;51941;52.210;5.158;2024-02-21T00:50:25;102094.44;;;9.02;78.60
65329;BME280;51941;52.210;5.158;2024-02-21T00:52:51;102093.63;;;9.01;78.34
65329;BME280;51941;52.210;5.158;2024-02-21T00:55:18;102099.81;;;9.02;78.66
65329;BME280;51941;52.210;5.158;2024-02-21T00:57:45;102104.72;;;9.00;78.64
65329;BME280;51941;52.210;5.158;2024-02-21T01:00:12;102099.13;;;9.05;78.63
65329;BME280;51941;52.210;5.158;2024-02-21T01:02:41;102100.72;;;9.06;78.87
65329;BME280;51941;52.210;5.158;2024-02-21T01:05:07;102086.97;;;9.07;78.52
65329;BME280;51941;52.210;5.158;2024-02-21T01:07:34;102090.16;;;9.01;78.43
65329;BME280;51941;52.210;5.158;2024-02-21T01:10:01;102082.41;;;8.99;78.77
65329;BME280;51941;52.210;5.158;2024-02-21T01:12:27;102084.72;;;8.88;78.88
65329;BME280;51941;52.210;5.158;2024-02-21T01:14:54;102080.41;;;8.96;78.84
65329;BME280;51941;52.210;5.158;2024-02-21T01:17:21;102081.50;;;8.95;79.13
65329;BME280;51941;52.210;5.158;2024-02-21T01:19:49;102078.88;;;8.86;79.23
65329;BME280;51941;52.210;5.158;2024-02-21T01:22:15;102073.31;;;8.91;79.17
65329;BME280;51941;52.210;5.158;2024-02-21T01:24:43;102073.78;;;8.94;78.86
65329;BME280;51941;52.210;5.158;2024-02-21T01:27:09;102061.84;;;9.03;78.74
65329;BME280;51941;52.210;5.158;2024-02-21T01:29:37;102063.13;;;8.97;78.70
65329;BME280;51941;52.210;5.158;2024-02-21T01:32:04;102060.13;;;8.99;78.89
65329;BME280;51941;52.210;5.158;2024-02-21T01:34:31;102047.69;;;8.94;78.80
65329;BME280;51941;52.210;5.158;2024-02-21T01:36:59;102044.78;;;8.99;78.93
65329;BME280;51941;52.210;5.158;2024-02-21T01:39:29;102037.66;;;9.03;78.74
65329;BME280;51941;52.210;5.158;2024-02-21T01:41:56;102043.50;;;9.05;78.71
65329;BME280;51941;52.210;5.158;2024-02-21T01:44:24;102027.03;;;9.07;78.73
65329;BME280;51941;52.210;5.158;2024-02-21T01:46:51;102030.06;;;9.05;78.62
65329;BME280;51941;52.210;5.158;2024-02-21T01:49:18;102018.84;;;9.03;78.56
65329;BME280;51941;52.210;5.158;2024-02-21T01:51:45;102026.44;;;9.01;78.78
65329;BME280;51941;52.210;5.158;2024-02-21T01:54:15;102016.63;;;9.05;78.60
65329;BME280;51941;52.210;5.158;2024-02-21T01:56:42;102021.06;;;9.01;78.63
65329;BME280;51941;52.210;5.158;2024-02-21T01:59:10;102018.63;;;9.08;78.55
65329;BME280;51941;52.210;5.158;2024-02-21T02:01:38;102027.56;;;9.00;78.92
65329;BME280;51941;52.210;5.158;2024-02-21T02:04:05;102018.84;;;9.03;78.88
65329;BME280;51941;52.210;5.158;2024-02-21T02:06:33;102015.50;;;9.06;78.56
65329;BME280;51941;52.210;5.158;2024-02-21T02:09:00;102014.41;;;9.07;78.64
65329;BME280;51941;52.210;5.158;2024-02-21T02:11:28;102010.78;;;9.03;78.63
65329;BME280;51941;52.210;5.158;2024-02-21T02:13:54;102007.53;;;8.98;78.91
65329;BME280;51941;52.210;5.158;2024-02-21T02:16:21;102007.28;;;9.03;78.84
65329;BME280;51941;52.210;5.158;2024-02-21T02:18:48;102000.69;;;9.00;78.95
65329;BME280;51941;52.210;5.158;2024-02-21T02:21:23;101993.94;;;8.94;79.05
65329;BME280;51941;52.210;5.158;2024-02-21T02:23:51;102000.25;;;8.98;78.92
65329;BME280;51941;52.210;5.158;2024-02-21T02:26:18;101993.84;;;9.03;78.88
65329;BME280;51941;52.210;5.158;2024-02-21T02:28:44;101998.13;;;9.04;78.89
65329;BME280;51941;52.210;5.158;2024-02-21T02:31:12;101992.75;;;9.04;78.90
65329;BME280;51941;52.210;5.158;2024-02-21T02:33:39;101988.03;;;9.01;78.83
65329;BME280;51941;52.210;5.158;2024-02-21T02:36:06;101983.22;;;8.94;79.24
65329;BME280;51941;52.210;5.158;2024-02-21T02:38:33;101988.25;;;8.96;79.07
65329;BME280;51941;52.210;5.158;2024-02-21T02:41:01;101993.63;;;8.96;79.00
65329;BME280;51941;52.210;5.158;2024-02-21T02:43:27;101991.84;;;9.00;78.91
65329;BME280;51941;52.210;5.158;2024-02-21T02:45:54;101976.97;;;9.02;78.92
65329;BME280;51941;52.210;5.158;2024-02-21T02:48:21;101986.25;;;9.05;79.10
65329;BME280;51941;52.210;5.158;2024-02-21T02:50:48;101980.09;;;9.04;78.88
65329;BME280;51941;52.210;5.158;2024-02-21T02:53:14;101970.94;;;9.05;78.74
65329;BME280;51941;52.210;5.158;2024-02-21T02:55:41;101973.63;;;9.05;79.08
65329;BME280;51941;52.210;5.158;2024-02-21T02:58:09;101958.06;;;9.11;78.96
65329;BME280;51941;52.210;5.158;2024-02-21T03:00:36;101968.69;;;9.07;78.87
65329;BME280;51941;52.210;5.158;2024-02-21T03:03:04;101966.91;;;9.11;79.05
65329;BME280;51941;52.210;5.158;2024-02-21T03:05:31;101964.38;;;9.15;78.84
65329;BME280;51941;52.210;5.158;2024-02-21T03:07:58;101955.72;;;9.09;78.77
65329;BME280;51941;52.210;5.158;2024-02-21T03:10:25;101947.31;;;9.11;78.52
65329;BME280;51941;52.210;5.158;2024-02-21T03:12:51;101953.47;;;9.11;78.73
65329;BME280;51941;52.210;5.158;2024-02-21T03:15:20;101942.38;;;9.13;78.76
65329;BME280;51941;52.210;5.158;2024-02-21T03:17:47;101949.34;;;9.14;78.63
65329;BME280;51941;52.210;5.158;2024-02-21T03:20:13;101931.19;;;9.11;78.78
65329;BME280;51941;52.210;5.158;2024-02-21T03:22:40;101930.72;;;9.09;78.72
65329;BME280;51941;52.210;5.158;2024-02-21T03:25:08;101914.28;;;9.10;78.98
65329;BME280;51941;52.210;5.158;2024-02-21T03:27:35;101920.09;;;9.13;78.50
65329;BME280;51941;52.210;5.158;2024-02-21T03:30:02;101912.47;;;9.15;78.71
65329;BME280;51941;52.210;5.158;2024-02-21T03:32:31;101904.09;;;9.16;78.53
65329;BME280;51941;52.210;5.158;2024-02-21T03:34:57;101904.88;;;9.17;78.43
65329;BME280;51941;52.210;5.158;2024-02-21T03:37:24;101900.63;;;9.16;78.64
65329;BME280;51941;52.210;5.158;2024-02-21T03:39:51;101885.06;;;9.21;78.38
65329;BME280;51941;52.210;5.158;2024-02-21T03:42:17;101888.22;;;9.23;78.35
65329;BME280;51941;52.210;5.158;2024-02-21T03:44:44;101895.13;;;9.12;78.32
65329;BME280;51941;52.210;5.158;2024-02-21T03:47:11;101891.88;;;9.19;78.75
65329;BME280;51941;52.210;5.158;2024-02-21T03:49:39;101897.72;;;9.21;78.40
65329;BME280;51941;52.210;5.158;2024-02-21T03:52:06;101893.91;;;9.22;78.33
65329;BME280;51941;52.210;5.158;2024-02-21T03:54:33;101889.66;;;9.21;78.25
65329;BME280;51941;52.210;5.158;2024-02-21T03:57:00;101887.31;;;9.19;78.26
65329;BME280;51941;52.210;5.158;2024-02-21T03:59:27;101885.72;;;9.18;78.47
65329;BME280;51941;52.210;5.158;2024-02-21T04:01:54;101882.91;;;9.15;78.29
65329;BME280;51941;52.210;5.158;2024-02-21T04:04:21;101885.16;;;9.13;78.17
65329;BME280;51941;52.210;5.158;2024-02-21T04:06:50;101884.81;;;9.14;78.56
65329;BME280;51941;52.210;5.158;2024-02-21T04:09:17;101886.75;;;9.14;78.23
65329;BME280;51941;52.210;5.158;2024-02-21T04:11:44;101884.06;;;9.14;78.27
65329;BME280;51941;52.210;5.158;2024-02-21T04:14:11;101874.84;;;9.15;78.36
65329;BME280;51941;52.210;5.158;2024-02-21T04:16:37;101867.13;;;9.13;78.32
65329;BME280;51941;52.210;5.158;2024-02-21T04:19:05;101864.91;;;9.15;78.13
65329;BME280;51941;52.210;5.158;2024-02-21T04:21:31;101866.91;;;9.06;78.24
65329;BME280;51941;52.210;5.158;2024-02-21T04:23:59;101868.69;;;9.14;78.23
65329;BME280;51941;52.210;5.158;2024-02-21T04:26:27;101866.34;;;9.13;78.20
65329;BME280;51941;52.210;5.158;2024-02-21T04:28:54;101864.78;;;9.11;78.18
65329;BME280;51941;52.210;5.158;2024-02-21T04:31:20;101864.53;;;9.04;77.92
65329;BME280;51941;52.210;5.158;2024-02-21T04:33:47;101867.88;;;9.01;78.12
65329;BME280;51941;52.210;5.158;2024-02-21T04:36:14;101871.84;;;9.04;78.12
65329;BME280;51941;52.210;5.158;2024-02-21T04:38:41;101871.06;;;9.03;78.24
65329;BME280;51941;52.210;5.158;2024-02-21T04:41:09;101863.00;;;9.03;78.39
65329;BME280;51941;52.210;5.158;2024-02-21T04:43:36;101859.16;;;9.04;78.19
65329;BME280;51941;52.210;5.158;2024-02-21T04:46:02;101847.19;;;9.02;77.95
65329;BME280;51941;52.210;5.158;2024-02-21T04:48:29;101849.31;;;8.96;78.11
65329;BME280;51941;52.210;5.158;2024-02-21T04:50:56;101845.59;;;9.01;78.08
65329;BME280;51941;52.210;5.158;2024-02-21T04:53:22;101849.63;;;8.95;77.81
65329;BME280;51941;52.210;5.158;2024-02-21T04:55:49;101843.25;;;8.99;78.24
65329;BME280;51941;52.210;5.158;2024-02-21T04:58:17;101839.56;;;8.91;77.97
65329;BME280;51941;52.210;5.158;2024-02-21T05:00:44;101841.69;;;8.98;77.97
65329;BME280;51941;52.210;5.158;2024-02-21T05:03:10;101840.47;;;8.96;78.24
65329;BME280;51941;52.210;5.158;2024-02-21T05:05:37;101842.03;;;8.97;78.33
65329;BME280;51941;52.210;5.158;2024-02-21T05:08:04;101838.22;;;8.98;78.06
65329;BME280;51941;52.210;5.158;2024-02-21T05:10:31;101833.19;;;8.96;77.98
65329;BME280;51941;52.210;5.158;2024-02-21T05:12:58;101825.13;;;8.96;78.03
65329;BME280;51941;52.210;5.158;2024-02-21T05:15:26;101824.69;;;8.94;77.93
65329;BME280;51941;52.210;5.158;2024-02-21T05:17:52;101822.88;;;8.98;78.13
65329;BME280;51941;52.210;5.158;2024-02-21T05:20:19;101819.75;;;8.96;77.95
65329;BME280;51941;52.210;5.158;2024-02-21T05:22:46;101818.06;;;8.91;78.17
65329;BME280;51941;52.210;5.158;2024-02-21T05:25:13;101810.47;;;8.94;78.04
65329;BME280;51941;52.210;5.158;2024-02-21T05:27:40;101802.41;;;8.94;78.01
65329;BME280;51941;52.210;5.158;2024-02-21T05:30:07;101796.66;;;8.83;77.90
65329;BME280;51941;52.210;5.158;2024-02-21T05:32:36;101790.53;;;8.82;78.25
65329;BME280;51941;52.210;5.158;2024-02-21T05:35:03;101789.38;;;8.83;78.24
65329;BME280;51941;52.210;5.158;2024-02-21T05:37:30;101773.25;;;8.83;78.15
65329;BME280;51941;52.210;5.158;2024-02-21T05:39:57;101774.03;;;8.71;78.48
65329;BME280;51941;52.210;5.158;2024-02-21T05:42:23;101769.69;;;8.79;78.36
65329;BME280;51941;52.210;5.158;2024-02-21T05:44:50;101760.59;;;8.71;78.42
65329;BME280;51941;52.210;5.158;2024-02-21T05:47:17;101760.72;;;8.75;78.41
65329;BME280;51941;52.210;5.158;2024-02-21T05:49:47;101756.13;;;8.76;78.22
65329;BME280;51941;52.210;5.158;2024-02-21T05:52:14;101752.34;;;8.77;78.37
65329;BME280;51941;52.210;5.158;2024-02-21T05:54:41;101747.09;;;8.80;78.08
65329;BME280;51941;52.210;5.158;2024-02-21T05:57:08;101749.97;;;8.75;78.42
65329;BME280;51941;52.210;5.158;2024-02-21T05:59:34;101757.38;;;8.78;78.47
65329;BME280;51941;52.210;5.158;2024-02-21T06:02:05;101753.44;;;8.76;78.10
65329;BME280;51941;52.210;5.158;2024-02-21T06:04:32;101755.16;;;8.80;78.49
65329;BME280;51941;52.210;5.158;2024-02-21T06:07:00;101742.38;;;8.77;78.39
65329;BME280;51941;52.210;5.158;2024-02-21T06:09:26;101746.75;;;8.82;78.46
65329;BME280;51941;52.210;5.158;2024-02-21T06:11:53;101739.81;;;8.81;78.41
65329;BME280;51941;52.210;5.158;2024-02-21T06:14:20;101735.66;;;8.83;78.40
65329;BME280;51941;52.210;5.158;2024-02-21T06:16:46;101738.59;;;8.78;78.02
65329;BME280;51941;52.210;5.158;2024-02-21T06:19:13;101734.66;;;8.76;78.29
65329;BME280;51941;52.210;5.158;2024-02-21T06:21:40;101736.66;;;8.79;78.55
65329;BME280;51941;52.210;5.158;2024-02-21T06:24:08;101740.59;;;8.81;78.19
65329;BME280;51941;52.210;5.158;2024-02-21T06:26:34;101737.78;;;8.78;78.38
65329;BME280;51941;52.210;5.158;2024-02-21T06:29:01;101745.75;;;8.74;78.42
65329;BME280;51941;52.210;5.158;2024-02-21T06:31:28;101746.06;;;8.73;78.73
65329;BME280;51941;52.210;5.158;2024-02-21T06:33:56;101755.34;;;8.75;78.34
65329;BME280;51941;52.210;5.158;2024-02-21T06:36:23;101751.56;;;8.76;78.49
65329;BME280;51941;52.210;5.158;2024-02-21T06:38:50;101744.28;;;8.77;78.56
65329;BME280;51941;52.210;5.158;2024-02-21T06:41:18;101739.34;;;8.79;78.50
65329;BME280;51941;52.210;5.158;2024-02-21T06:43:45;101748.75;;;8.73;78.67
65329;BME280;51941;52.210;5.158;2024-02-21T06:46:12;101752.00;;;8.78;78.68
65329;BME280;51941;52.210;5.158;2024-02-21T06:48:38;101738.78;;;8.73;78.59
65329;BME280;51941;52.210;5.158;2024-02-21T06:51:05;101739.34;;;8.79;78.64
65329;BME280;51941;52.210;5.158;2024-02-21T06:53:32;101729.97;;;8.73;78.28
65329;BME280;51941;52.210;5.158;2024-02-21T06:55:58;101726.00;;;8.58;78.94
65329;BME280;51941;52.210;5.158;2024-02-21T06:58:26;101727.59;;;8.71;78.57
65329;BME280;51941;52.210;5.158;2024-02-21T07:00:53;101722.44;;;8.66;78.36
65329;BME280;51941;52.210;5.158;2024-02-21T07:03:20;101719.75;;;8.66;78.83
65329;BME280;51941;52.210;5.158;2024-02-21T07:05:46;101714.16;;;8.71;78.64
65329;BME280;51941;52.210;5.158;2024-02-21T07:08:13;101713.72;;;8.69;78.29
65329;BME280;51941;52.210;5.158;2024-02-21T07:10:39;101710.38;;;8.72;78.58
65329;BME280;51941;52.210;5.158;2024-02-21T07:13:06;101707.34;;;8.74;78.37
65329;BME280;51941;52.210;5.158;2024-02-21T07:15:34;101711.47;;;8.71;78.31
65329;BME280;51941;52.210;5.158;2024-02-21T07:18:01;101709.25;;;8.73;78.49
65329;BME280;51941;52.210;5.158;2024-02-21T07:20:28;101701.88;;;8.70;78.45
65329;BME280;51941;52.210;5.158;2024-02-21T07:22:55;101710.78;;;8.62;78.36
65329;BME280;51941;52.210;5.158;2024-02-21T07:25:22;101698.75;;;8.68;78.15
65329;BME280;51941;52.210;5.158;2024-02-21T07:27:48;101700.09;;;8.74;78.47
65329;BME280;51941;52.210;5.158;2024-02-21T07:30:15;101705.47;;;8.74;77.84
65329;BME280;51941;52.210;5.158;2024-02-21T07:32:43;101698.84;;;8.71;78.07
65329;BME280;51941;52.210;5.158;2024-02-21T07:35:10;101680.47;;;8.74;78.10
65329;BME280;51941;52.210;5.158;2024-02-21T07:37:37;101677.91;;;8.77;77.95
65329;BME280;51941;52.210;5.158;2024-02-21T07:40:05;101674.91;;;8.79;78.00
65329;BME280;51941;52.210;5.158;2024-02-21T07:42:32;101674.22;;;8.82;78.13
65329;BME280;51941;52.210;5.158;2024-02-21T07:44:59;101660.25;;;8.76;77.53
65329;BME280;51941;52.210;5.158;2024-02-21T07:47:26;101658.13;;;8.82;78.01
65329;BME280;51941;52.210;5.158;2024-02-21T07:49:54;101654.97;;;8.67;77.82
65329;BME280;51941;52.210;5.158;2024-02-21T07:52:21;101655.78;;;8.68;78.25
65329;BME280;51941;52.210;5.158;2024-02-21T07:54:47;101648.94;;;8.70;78.05
65329;BME280;51941;52.210;5.158;2024-02-21T07:57:14;101657.09;;;8.74;78.22
65329;BME280;51941;52.210;5.158;2024-02-21T07:59:41;101646.13;;;8.79;78.00
65329;BME280;51941;52.210;5.158;2024-02-21T08:02:07;101659.00;;;8.61;77.46
65329;BME280;51941;52.210;5.158;2024-02-21T08:04:37;101651.75;;;8.74;78.07
65329;BME280;51941;52.210;5.158;2024-02-21T08:07:05;101650.16;;;8.73;77.74
65329;BME280;51941;52.210;5.158;2024-02-21T08:09:32;101641.88;;;8.78;77.89
65329;BME280;51941;52.210;5.158;2024-02-21T08:11:58;101646.44;;;8.78;77.80
65329;BME280;51941;52.210;5.158;2024-02-21T08:14:25;101642.78;;;8.82;78.15
65329;BME280;51941;52.210;5.158;2024-02-21T08:16:52;101639.53;;;8.77;78.19
65329;BME280;51941;52.210;5.158;2024-02-21T08:19:20;101636.38;;;8.87;77.69
65329;BME280;51941;52.210;5.158;2024-02-21T08:21:47;101633.03;;;8.90;77.71
65329;BME280;51941;52.210;5.158;2024-02-21T08:24:16;101630.44;;;8.94;77.50
65329;BME280;51941;52.210;5.158;2024-02-21T08:26:43;101634.34;;;8.96;77.61
65329;BME280;51941;52.210;5.158;2024-02-21T08:29:11;101617.38;;;8.80;77.28
65329;BME280;51941;52.210;5.158;2024-02-21T08:31:38;101618.78;;;8.89;77.01
65329;BME280;51941;52.210;5.158;2024-02-21T08:34:04;101619.03;;;8.84;77.22
65329;BME280;51941;52.210;5.158;2024-02-21T08:36:32;101608.84;;;8.90;77.54
65329;BME280;51941;52.210;5.158;2024-02-21T08:38:59;101604.69;;;8.93;77.48
65329;BME280;51941;52.210;5.158;2024-02-21T08:41:27;101594.50;;;8.98;77.50
65329;BME280;51941;52.210;5.158;2024-02-21T08:43:54;101592.13;;;8.97;77.00
65329;BME280;51941;52.210;5.158;2024-02-21T08:46:21;101577.34;;;9.03;76.79
65329;BME280;51941;52.210;5.158;2024-02-21T08:48:49;101582.59;;;9.11;76.69
65329;BME280;51941;52.210;5.158;2024-02-21T08:51:16;101581.78;;;9.11;76.51
65329;BME280;51941;52.210;5.158;2024-02-21T08:53:43;101586.06;;;9.12;76.61
65329;BME280;51941;52.210;5.158;2024-02-21T08:56:10;101580.84;;;9.03;76.14
65329;BME280;51941;52.210;5.158;2024-02-21T08:58:40;101585.63;;;9.10;76.63
65329;BME280;51941;52.210;5.158;2024-02-21T09:01:07;101586.97;;;9.04;76.52
65329;BME280;51941;52.210;5.158;2024-02-21T09:03:35;101575.91;;;9.05;76.70
65329;BME280;51941;52.210;5.158;2024-02-21T09:06:03;101566.03;;;9.09;76.43
65329;BME280;51941;52.210;5.158;2024-02-21T09:08:30;101574.47;;;9.24;76.03
65329;BME280;51941;52.210;5.158;2024-02-21T09:10:57;101570.28;;;9.10;75.91
65329;BME280;51941;52.210;5.158;2024-02-21T09:13:24;101568.66;;;9.22;76.14
65329;BME280;51941;52.210;5.158;2024-02-21T09:15:52;101565.00;;;9.14;76.14
65329;BME280;51941;52.210;5.158;2024-02-21T09:18:19;101555.34;;;9.13;76.08
65329;BME280;51941;52.210;5.158;2024-02-21T09:20:45;101551.72;;;9.05;75.68
65329;BME280;51941;52.210;5.158;2024-02-21T09:23:13;101536.22;;;9.15;75.78
65329;BME280;51941;52.210;5.158;2024-02-21T09:25:40;101540.22;;;9.21;75.65
65329;BME280;51941;52.210;5.158;2024-02-21T09:28:09;101538.31;;;9.21;75.35
65329;BME280;51941;52.210;5.158;2024-02-21T09:30:36;101531.47;;;9.24;75.04
65329;BME280;51941;52.210;5.158;2024-02-21T09:33:05;101529.28;;;9.14;75.41
65329;BME280;51941;52.210;5.158;2024-02-21T09:35:32;101526.69;;;9.17;74.91
65329;BME280;51941;52.210;5.158;2024-02-21T09:37:59;101511.59;;;9.13;75.53
65329;BME280;51941;52.210;5.158;2024-02-21T09:40:26;101512.81;;;9.15;75.06
65329;BME280;51941;52.210;5.158;2024-02-21T09:42:58;101511.19;;;9.26;75.14
65329;BME280;51941;52.210;5.158;2024-02-21T09:45:29;101498.19;;;9.28;75.12
65329;BME280;51941;52.210;5.158;2024-02-21T09:48:15;101487.69;;;9.23;74.75
65329;BME280;51941;52.210;5.158;2024-02-21T09:50:47;101475.56;;;9.29;74.28
65329;BME280;51941;52.210;5.158;2024-02-21T09:53:14;101465.47;;;9.39;74.36
65329;BME280;51941;52.210;5.158;2024-02-21T09:55:43;101459.28;;;9.38;74.23
65329;BME280;51941;52.210;5.158;2024-02-21T09:58:10;101455.56;;;9.43;74.24
65329;BME280;51941;52.210;5.158;2024-02-21T10:00:38;101451.16;;;9.50;74.24
65329;BME280;51941;52.210;5.158;2024-02-21T10:03:05;101442.28;;;9.50;73.22
65329;BME280;51941;52.210;5.158;2024-02-21T10:05:47;101442.19;;;9.46;73.58
65329;BME280;51941;52.210;5.158;2024-02-21T10:08:14;101427.03;;;9.54;73.98
65329;BME280;51941;52.210;5.158;2024-02-21T10:10:42;101430.66;;;9.46;73.36
65329;BME280;51941;52.210;5.158;2024-02-21T10:13:10;101423.66;;;9.57;72.89
65329;BME280;51941;52.210;5.158;2024-02-21T10:15:37;101422.78;;;9.53;72.64
65329;BME280;51941;52.210;5.158;2024-02-21T10:18:04;101420.16;;;9.73;72.99
65329;BME280;51941;52.210;5.158;2024-02-21T10:20:32;101412.88;;;9.73;72.65
65329;BME280;51941;52.210;5.158;2024-02-21T10:23:04;101406.28;;;9.70;72.37
65329;BME280;51941;52.210;5.158;2024-02-21T10:25:34;101397.69;;;9.81;71.79
65329;BME280;51941;52.210;5.158;2024-02-21T10:28:02;101404.34;;;9.87;71.86
65329;BME280;51941;52.210;5.158;2024-02-21T10:30:29;101395.50;;;9.86;71.30
65329;BME280;51941;52.210;5.158;2024-02-21T10:32:56;101385.47;;;9.67;71.69
65329;BME280;51941;52.210;5.158;2024-02-21T10:35:27;101378.25;;;9.72;71.53
65329;BME280;51941;52.210;5.158;2024-02-21T10:37:55;101370.09;;;9.68;72.07
65329;BME280;51941;52.210;5.158;2024-02-21T10:40:24;101368.91;;;9.65;71.94
65329;BME280;51941;52.210;5.158;2024-02-21T10:42:56;101353.44;;;9.62;72.30
65329;BME280;51941;52.210;5.158;2024-02-21T10:45:29;101354.84;;;9.92;71.68
65329;BME280;51941;52.210;5.158;2024-02-21T10:48:06;101344.91;;;10.12;70.29
65329;BME280;51941;52.210;5.158;2024-02-21T10:50:43;101321.81;;;10.10;70.61
65329;BME280;51941;52.210;5.158;2024-02-21T10:53:20;101315.75;;;10.17;70.49
65329;BME280;51941;52.210;5.158;2024-02-21T10:55:56;101288.06;;;9.78;71.29
65329;BME280;51941;52.210;5.158;2024-02-21T10:58:25;101288.72;;;10.10;70.46
65329;BME280;51941;52.210;5.158;2024-02-21T11:00:54;101274.63;;;10.17;70.28
65329;BME280;51941;52.210;5.158;2024-02-21T11:03:21;101338.53;;;10.20;70.39
65329;BME280;51941;52.210;5.158;2024-02-21T11:05:48;101344.69;;;10.20;69.90
65329;BME280;51941;52.210;5.158;2024-02-21T11:08:16;101341.72;;;10.25;70.51
65329;BME280;51941;52.210;5.158;2024-02-21T11:10:46;101346.19;;;10.18;70.72
65329;BME280;51941;52.210;5.158;2024-02-21T11:13:14;101344.41;;;10.25;70.39
65329;BME280;51941;52.210;5.158;2024-02-21T11:15:40;101330.38;;;10.16;70.90
65329;BME280;51941;52.210;5.158;2024-02-21T11:18:07;101339.56;;;10.15;70.83
65329;BME280;51941;52.210;5.158;2024-02-21T11:20:34;101332.13;;;10.08;70.63
65329;BME280;51941;52.210;5.158;2024-02-21T11:23:01;101337.38;;;10.21;70.84
65329;BME280;51941;52.210;5.158;2024-02-21T11:25:28;101333.22;;;10.23;70.70
65329;BME280;51941;52.210;5.158;2024-02-21T11:28:00;101319.03;;;10.07;70.78
65329;BME280;51941;52.210;5.158;2024-02-21T11:30:30;101307.84;;;10.05;70.71
65329;BME280;51941;52.210;5.158;2024-02-21T11:33:01;101298.06;;;9.97;71.01
65329;BME280;51941;52.210;5.158;2024-02-21T11:35:31;101290.56;;;9.86;70.39
65329;BME280;51941;52.210;5.158;2024-02-21T11:38:08;101261.72;;;9.67;71.35
65329;BME280;51941;52.210;5.158;2024-02-21T11:40:38;101261.47;;;9.73;71.08
65329;BME280;51941;52.210;5.158;2024-02-21T11:43:04;101261.16;;;9.78;70.85
65329;BME280;51941;52.210;5.158;2024-02-21T11:45:32;101255.88;;;9.81;70.75
65329;BME280;51941;52.210;5.158;2024-02-21T11:47:59;101258.41;;;9.94;70.71
65329;BME280;51941;52.210;5.158;2024-02-21T11:50:29;101239.09;;;9.88;70.60
65329;BME280;51941;52.210;5.158;2024-02-21T11:52:56;101214.88;;;9.88;70.04
65329;BME280;51941;52.210;5.158;2024-02-21T11:55:23;101204.22;;;10.15;70.24
65329;BME280;51941;52.210;5.158;2024-02-21T11:57:50;101188.69;;;10.27;69.88
65329;BME280;51941;52.210;5.158;2024-02-21T12:00:18;101180.66;;;10.08;69.63
65329;BME280;51941;52.210;5.158;2024-02-21T12:02:47;101170.66;;;10.32;68.88
65329;BME280;51941;52.210;5.158;2024-02-21T12:05:14;101167.91;;;10.51;68.82
65329;BME280;51941;52.210;5.158;2024-02-21T12:07:41;101153.34;;;10.56;68.72
65329;BME280;51941;52.210;5.158;2024-02-21T12:10:08;101148.13;;;10.66;68.27
65329;BME280;51941;52.210;5.158;2024-02-21T12:12:36;101141.91;;;10.62;68.13
65329;BME280;51941;52.210;5.158;2024-02-21T12:15:03;101127.84;;;10.76;68.12
65329;BME280;51941;52.210;5.158;2024-02-21T12:17:30;101135.59;;;10.78;68.17
65329;BME280;51941;52.210;5.158;2024-02-21T12:19:58;101132.84;;;10.74;67.77
65329;BME280;51941;52.210;5.158;2024-02-21T12:22:25;101137.81;;;10.45;69.18
65329;BME280;51941;52.210;5.158;2024-02-21T12:24:52;101128.16;;;10.44;69.47
65329;BME280;51941;52.210;5.158;2024-02-21T12:27:20;101120.56;;;10.50;69.46
65329;BME280;51941;52.210;5.158;2024-02-21T12:29:47;101104.16;;;10.59;69.14
65329;BME280;51941;52.210;5.158;2024-02-21T12:32:14;101100.19;;;10.53;69.22
65329;BME280;51941;52.210;5.158;2024-02-21T12:34:41;101086.53;;;10.65;68.95
65329;BME280;51941;52.210;5.158;2024-02-21T12:37:10;101087.16;;;10.55;69.21
65329;BME280;51941;52.210;5.158;2024-02-21T12:39:38;101072.19;;;10.57;69.37
65329;BME280;51941;52.210;5.158;2024-02-21T12:42:05;101068.44;;;10.65;68.67
65329;BME280;51941;52.210;5.158;2024-02-21T12:44:32;101052.59;;;10.60;68.01
65329;BME280;51941;52.210;5.158;2024-02-21T12:46:59;101049.09;;;10.56;67.69
65329;BME280;51941;52.210;5.158;2024-02-21T12:49:26;101038.47;;;10.67;67.83
65329;BME280;51941;52.210;5.158;2024-02-21T12:51:55;101031.97;;;10.72;67.95
65329;BME280;51941;52.210;5.158;2024-02-21T12:54:23;101034.56;;;10.91;68.11
65329;BME280;51941;52.210;5.158;2024-02-21T12:56:50;101028.81;;;10.93;68.17
65329;BME280;51941;52.210;5.158;2024-02-21T12:59:16;101016.44;;;10.92;67.93